sensor_id;sensor_type;location;lat;lon;timestamp;P1;durP1;ratioP1;P2;durP2;ratioP2
63026;SDS011;59113;51.434;-2.004;2022-08-14T00:01:17;8.50;;;2.85;;
63026;SDS011;59113;51.434;-2.004;2022-08-14T00:03:43;3.95;;;3.05;;
63026;SDS011;59113;51.434;-2.004;2022-08-14T00:06:08;6.05;;;3.05;;
63026;SDS011;59113;51.434;-2.004;2022-08-14T00:08:34;7.20;;;3.17;;
63026;SDS011;59113;51.434;-2.004;2022-08-14T00:10:59;3.25;;;2.35;;
63026;SDS011;59113;51.434;-2.004;2022-08-14T00:13:25;5.35;;;2.75;;
63026;SDS011;59113;51.434;-2.004;2022-08-14T00:15:56;4.18;;;2.38;;
63026;SDS011;59113;51.434;-2.004;2022-08-14T00:18:23;6.55;;;2.42;;
63026;SDS011;59113;51.434;-2.004;2022-08-14T00:20:50;2.28;;;1.83;;
63026;SDS011;59113;51.434;-2.004;2022-08-14T00:23:17;6.22;;;2.42;;
63026;SDS011;59113;51.434;-2.004;2022-08-14T00:25:45;5.85;;;2.72;;
63026;SDS011;59113;51.434;-2.004;2022-08-14T00:28:12;4.38;;;2.88;;
63026;SDS011;59113;51.434;-2.004;2022-08-14T00:30:38;5.72;;;2.28;;
63026;SDS011;59113;51.434;-2.004;2022-08-14T00:33:07;6.72;;;2.78;;
63026;SDS011;59113;51.434;-2.004;2022-08-14T00:35:33;4.75;;;2.55;;
63026;SDS011;59113;51.434;-2.004;2022-08-14T00:44:51;5.10;;;2.58;;
63026;SDS011;59113;51.434;-2.004;2022-08-14T00:50:41;6.22;;;2.53;;
63026;SDS011;59113;51.434;-2.004;2022-08-14T00:53:07;4.80;;;2.45;;
63026;SDS011;59113;51.434;-2.004;2022-08-14T00:55:33;3.72;;;2.67;;
63026;SDS011;59113;51.434;-2.004;2022-08-14T01:01:22;6.70;;;3.38;;
63026;SDS011;59113;51.434;-2.004;2022-08-14T01:03:48;12.60;;;3.03;;
63026;SDS011;59113;51.434;-2.004;2022-08-14T01:06:13;6.60;;;2.65;;
63026;SDS011;59113;51.434;-2.004;2022-08-14T01:08:41;5.63;;;2.40;;
63026;SDS011;59113;51.434;-2.004;2022-08-14T01:11:08;6.25;;;2.45;;
63026;SDS011;59113;51.434;-2.004;2022-08-14T01:13:36;10.10;;;2.90;;
63026;SDS011;59113;51.434;-2.004;2022-08-14T01:18:57;11.45;;;3.33;;
63026;SDS011;59113;51.434;-2.004;2022-08-14T01:21:42;8.48;;;2.67;;
63026;SDS011;59113;51.434;-2.004;2022-08-14T01:24:09;9.10;;;2.80;;
63026;SDS011;59113;51.434;-2.004;2022-08-14T01:30:07;6.35;;;2.83;;
63026;SDS011;59113;51.434;-2.004;2022-08-14T01:32:33;6.68;;;3.08;;
63026;SDS011;59113;51.434;-2.004;2022-08-14T01:34:58;8.77;;;2.80;;
63026;SDS011;59113;51.434;-2.004;2022-08-14T01:40:45;7.15;;;2.38;;
63026;SDS011;59113;51.434;-2.004;2022-08-14T01:43:11;9.82;;;3.03;;
63026;SDS011;59113;51.434;-2.004;2022-08-14T01:45:41;11.88;;;2.90;;
63026;SDS011;59113;51.434;-2.004;2022-08-14T01:48:09;4.38;;;2.75;;
63026;SDS011;59113;51.434;-2.004;2022-08-14T01:50:35;10.60;;;2.63;;
63026;SDS011;59113;51.434;-2.004;2022-08-14T01:53:00;8.75;;;2.55;;
63026;SDS011;59113;51.434;-2.004;2022-08-14T01:55:27;6.10;;;2.33;;
63026;SDS011;59113;51.434;-2.004;2022-08-14T02:01:06;6.03;;;3.22;;
63026;SDS011;59113;51.434;-2.004;2022-08-14T02:03:38;5.38;;;2.60;;
63026;SDS011;59113;51.434;-2.004;2022-08-14T02:06:04;4.97;;;2.67;;
63026;SDS011;59113;51.434;-2.004;2022-08-14T02:08:29;5.10;;;2.53;;
63026;SDS011;59113;51.434;-2.004;2022-08-14T02:10:56;4.38;;;2.53;;
63026;SDS011;59113;51.434;-2.004;2022-08-14T02:14:06;7.03;;;2.67;;
63026;SDS011;59113;51.434;-2.004;2022-08-14T02:19:56;5.00;;;2.85;;
63026;SDS011;59113;51.434;-2.004;2022-08-14T02:22:22;4.22;;;2.60;;
63026;SDS011;59113;51.434;-2.004;2022-08-14T02:24:47;7.63;;;3.00;;
63026;SDS011;59113;51.434;-2.004;2022-08-14T02:37:18;6.10;;;3.15;;
63026;SDS011;59113;51.434;-2.004;2022-08-14T02:39:44;4.03;;;2.47;;
63026;SDS011;59113;51.434;-2.004;2022-08-14T02:42:15;7.68;;;2.70;;
63026;SDS011;59113;51.434;-2.004;2022-08-14T02:44:45;6.88;;;2.88;;
63026;SDS011;59113;51.434;-2.004;2022-08-14T02:50:32;9.43;;;2.80;;
63026;SDS011;59113;51.434;-2.004;2022-08-14T02:52:59;10.60;;;3.22;;
63026;SDS011;59113;51.434;-2.004;2022-08-14T02:55:25;6.72;;;2.58;;
63026;SDS011;59113;51.434;-2.004;2022-08-14T03:01:19;4.43;;;2.58;;
63026;SDS011;59113;51.434;-2.004;2022-08-14T03:03:46;6.47;;;3.33;;
63026;SDS011;59113;51.434;-2.004;2022-08-14T03:06:14;5.18;;;3.33;;
63026;SDS011;59113;51.434;-2.004;2022-08-14T03:08:41;4.70;;;2.63;;
63026;SDS011;59113;51.434;-2.004;2022-08-14T03:11:09;3.45;;;2.50;;
63026;SDS011;59113;51.434;-2.004;2022-08-14T03:13:37;7.00;;;2.83;;
63026;SDS011;59113;51.434;-2.004;2022-08-14T03:18:51;4.30;;;2.85;;
63026;SDS011;59113;51.434;-2.004;2022-08-14T03:21:19;6.18;;;3.17;;
63026;SDS011;59113;51.434;-2.004;2022-08-14T03:23:48;6.35;;;2.90;;
63026;SDS011;59113;51.434;-2.004;2022-08-14T03:29:36;7.80;;;2.80;;
63026;SDS011;59113;51.434;-2.004;2022-08-14T03:32:03;10.43;;;2.70;;
63026;SDS011;59113;51.434;-2.004;2022-08-14T03:34:30;7.70;;;2.67;;
63026;SDS011;59113;51.434;-2.004;2022-08-14T03:40:24;5.93;;;2.80;;
63026;SDS011;59113;51.434;-2.004;2022-08-14T03:42:49;3.90;;;2.88;;
63026;SDS011;59113;51.434;-2.004;2022-08-14T03:45:16;6.93;;;2.33;;
63026;SDS011;59113;51.434;-2.004;2022-08-14T03:51:03;4.35;;;2.60;;
63026;SDS011;59113;51.434;-2.004;2022-08-14T03:53:29;4.05;;;2.78;;
63026;SDS011;59113;51.434;-2.004;2022-08-14T03:58:47;5.32;;;2.20;;
63026;SDS011;59113;51.434;-2.004;2022-08-14T04:01:16;9.45;;;2.83;;
63026;SDS011;59113;51.434;-2.004;2022-08-14T04:03:46;6.03;;;2.80;;
63026;SDS011;59113;51.434;-2.004;2022-08-14T04:06:12;4.65;;;3.55;;
63026;SDS011;59113;51.434;-2.004;2022-08-14T04:08:38;4.40;;;2.88;;
63026;SDS011;59113;51.434;-2.004;2022-08-14T04:11:05;4.78;;;2.55;;
63026;SDS011;59113;51.434;-2.004;2022-08-14T04:13:32;6.07;;;3.28;;
63026;SDS011;59113;51.434;-2.004;2022-08-14T04:19:24;7.32;;;2.88;;
63026;SDS011;59113;51.434;-2.004;2022-08-14T04:21:50;5.10;;;2.83;;
63026;SDS011;59113;51.434;-2.004;2022-08-14T04:24:16;4.30;;;2.80;;
63026;SDS011;59113;51.434;-2.004;2022-08-14T04:30:04;6.13;;;2.78;;
63026;SDS011;59113;51.434;-2.004;2022-08-14T04:32:30;7.97;;;2.85;;
63026;SDS011;59113;51.434;-2.004;2022-08-14T04:34:58;8.68;;;3.00;;
63026;SDS011;59113;51.434;-2.004;2022-08-14T04:40:47;4.22;;;2.85;;
63026;SDS011;59113;51.434;-2.004;2022-08-14T04:43:30;4.90;;;3.05;;
63026;SDS011;59113;51.434;-2.004;2022-08-14T04:49:46;6.88;;;2.58;;
63026;SDS011;59113;51.434;-2.004;2022-08-14T04:52:11;8.63;;;2.78;;
63026;SDS011;59113;51.434;-2.004;2022-08-14T04:54:36;7.28;;;3.20;;
63026;SDS011;59113;51.434;-2.004;2022-08-14T05:00:24;5.53;;;2.78;;
63026;SDS011;59113;51.434;-2.004;2022-08-14T05:02:50;8.82;;;3.72;;
63026;SDS011;59113;51.434;-2.004;2022-08-14T05:05:16;8.57;;;3.08;;
63026;SDS011;59113;51.434;-2.004;2022-08-14T05:07:41;11.88;;;4.13;;
63026;SDS011;59113;51.434;-2.004;2022-08-14T05:10:07;19.23;;;3.10;;
63026;SDS011;59113;51.434;-2.004;2022-08-14T05:12:33;5.72;;;3.30;;
63026;SDS011;59113;51.434;-2.004;2022-08-14T05:14:58;5.97;;;3.20;;
63026;SDS011;59113;51.434;-2.004;2022-08-14T05:20:52;5.25;;;3.05;;
63026;SDS011;59113;51.434;-2.004;2022-08-14T05:23:23;5.22;;;3.45;;
63026;SDS011;59113;51.434;-2.004;2022-08-14T05:29:14;5.95;;;2.90;;
63026;SDS011;59113;51.434;-2.004;2022-08-14T05:31:40;7.43;;;3.30;;
63026;SDS011;59113;51.434;-2.004;2022-08-14T05:34:06;5.40;;;3.47;;
63026;SDS011;59113;51.434;-2.004;2022-08-14T05:39:56;5.75;;;3.47;;
63026;SDS011;59113;51.434;-2.004;2022-08-14T05:42:22;8.77;;;3.28;;
63026;SDS011;59113;51.434;-2.004;2022-08-14T05:44:48;5.35;;;3.22;;
63026;SDS011;59113;51.434;-2.004;2022-08-14T05:50:35;4.38;;;3.25;;
63026;SDS011;59113;51.434;-2.004;2022-08-14T05:53:02;5.35;;;3.65;;
63026;SDS011;59113;51.434;-2.004;2022-08-14T05:55:27;4.18;;;2.72;;
63026;SDS011;59113;51.434;-2.004;2022-08-14T06:01:14;4.75;;;3.15;;
63026;SDS011;59113;51.434;-2.004;2022-08-14T06:07:02;4.72;;;3.60;;
63026;SDS011;59113;51.434;-2.004;2022-08-14T06:09:27;4.95;;;3.42;;
63026;SDS011;59113;51.434;-2.004;2022-08-14T06:11:53;5.60;;;3.08;;
63026;SDS011;59113;51.434;-2.004;2022-08-14T06:14:18;6.07;;;3.10;;
63026;SDS011;59113;51.434;-2.004;2022-08-14T06:20:06;5.28;;;3.22;;
63026;SDS011;59113;51.434;-2.004;2022-08-14T06:22:32;4.03;;;2.90;;
63026;SDS011;59113;51.434;-2.004;2022-08-14T06:24:57;7.68;;;3.60;;
63026;SDS011;59113;51.434;-2.004;2022-08-14T06:30:51;5.70;;;3.25;;
63026;SDS011;59113;51.434;-2.004;2022-08-14T06:33:17;12.07;;;3.60;;
63026;SDS011;59113;51.434;-2.004;2022-08-14T06:38:29;6.95;;;3.22;;
63026;SDS011;59113;51.434;-2.004;2022-08-14T06:40:54;6.10;;;3.38;;
63026;SDS011;59113;51.434;-2.004;2022-08-14T06:43:19;6.65;;;3.30;;
63026;SDS011;59113;51.434;-2.004;2022-08-14T06:45:48;4.55;;;3.50;;
63026;SDS011;59113;51.434;-2.004;2022-08-14T06:50:47;10.63;;;3.70;;
63026;SDS011;59113;51.434;-2.004;2022-08-14T06:53:13;4.68;;;3.03;;
63026;SDS011;59113;51.434;-2.004;2022-08-14T06:55:40;14.02;;;3.67;;
63026;SDS011;59113;51.434;-2.004;2022-08-14T06:58:09;5.57;;;3.10;;
63026;SDS011;59113;51.434;-2.004;2022-08-14T07:00:39;8.88;;;3.40;;
63026;SDS011;59113;51.434;-2.004;2022-08-14T07:03:05;8.15;;;3.30;;
63026;SDS011;59113;51.434;-2.004;2022-08-14T07:05:49;6.07;;;3.50;;
63026;SDS011;59113;51.434;-2.004;2022-08-14T07:08:18;6.55;;;3.95;;
63026;SDS011;59113;51.434;-2.004;2022-08-14T07:10:47;5.90;;;3.17;;
63026;SDS011;59113;51.434;-2.004;2022-08-14T07:13:14;5.97;;;3.40;;
63026;SDS011;59113;51.434;-2.004;2022-08-14T07:19:11;6.82;;;3.03;;
63026;SDS011;59113;51.434;-2.004;2022-08-14T07:21:36;10.52;;;2.92;;
63026;SDS011;59113;51.434;-2.004;2022-08-14T07:24:05;4.63;;;3.35;;
63026;SDS011;59113;51.434;-2.004;2022-08-14T07:29:53;4.28;;;3.33;;
63026;SDS011;59113;51.434;-2.004;2022-08-14T07:32:18;7.07;;;2.88;;
63026;SDS011;59113;51.434;-2.004;2022-08-14T07:34:44;3.55;;;2.80;;
63026;SDS011;59113;51.434;-2.004;2022-08-14T07:40:32;6.18;;;2.75;;
63026;SDS011;59113;51.434;-2.004;2022-08-14T07:42:58;9.63;;;2.70;;
63026;SDS011;59113;51.434;-2.004;2022-08-14T07:45:24;10.98;;;2.75;;
63026;SDS011;59113;51.434;-2.004;2022-08-14T07:51:12;8.57;;;3.03;;
63026;SDS011;59113;51.434;-2.004;2022-08-14T07:53:38;5.55;;;3.10;;
63026;SDS011;59113;51.434;-2.004;2022-08-14T07:59:26;6.43;;;2.65;;
63026;SDS011;59113;51.434;-2.004;2022-08-14T08:04:55;3.60;;;2.20;;
63026;SDS011;59113;51.434;-2.004;2022-08-14T08:07:24;5.65;;;2.33;;
63026;SDS011;59113;51.434;-2.004;2022-08-14T08:09:52;6.97;;;2.38;;
63026;SDS011;59113;51.434;-2.004;2022-08-14T08:12:20;3.75;;;2.40;;
63026;SDS011;59113;51.434;-2.004;2022-08-14T08:14:46;8.50;;;2.25;;
63026;SDS011;59113;51.434;-2.004;2022-08-14T08:17:16;8.95;;;2.53;;
63026;SDS011;59113;51.434;-2.004;2022-08-14T08:19:44;7.25;;;2.38;;
63026;SDS011;59113;51.434;-2.004;2022-08-14T08:22:11;5.05;;;2.38;;
63026;SDS011;59113;51.434;-2.004;2022-08-14T08:24:36;4.00;;;1.70;;
63026;SDS011;59113;51.434;-2.004;2022-08-14T08:27:02;4.32;;;2.00;;
63026;SDS011;59113;51.434;-2.004;2022-08-14T08:29:39;3.50;;;1.65;;
63026;SDS011;59113;51.434;-2.004;2022-08-14T08:32:04;8.32;;;2.10;;
63026;SDS011;59113;51.434;-2.004;2022-08-14T08:34:29;10.80;;;2.70;;
63026;SDS011;59113;51.434;-2.004;2022-08-14T08:36:56;10.30;;;1.80;;
63026;SDS011;59113;51.434;-2.004;2022-08-14T08:39:22;10.05;;;2.08;;
63026;SDS011;59113;51.434;-2.004;2022-08-14T08:41:48;8.63;;;2.13;;
63026;SDS011;59113;51.434;-2.004;2022-08-14T08:44:13;5.10;;;1.83;;
63026;SDS011;59113;51.434;-2.004;2022-08-14T08:46:39;9.00;;;1.85;;
63026;SDS011;59113;51.434;-2.004;2022-08-14T08:49:07;4.55;;;1.75;;
63026;SDS011;59113;51.434;-2.004;2022-08-14T08:51:35;8.63;;;1.83;;
63026;SDS011;59113;51.434;-2.004;2022-08-14T08:54:07;9.50;;;2.10;;
63026;SDS011;59113;51.434;-2.004;2022-08-14T08:56:36;6.10;;;1.92;;
63026;SDS011;59113;51.434;-2.004;2022-08-14T08:59:02;6.17;;;1.70;;
63026;SDS011;59113;51.434;-2.004;2022-08-14T09:01:41;4.70;;;1.55;;
63026;SDS011;59113;51.434;-2.004;2022-08-14T09:04:11;5.70;;;2.58;;
63026;SDS011;59113;51.434;-2.004;2022-08-14T09:06:44;4.70;;;1.52;;
63026;SDS011;59113;51.434;-2.004;2022-08-14T09:09:18;3.83;;;1.80;;
63026;SDS011;59113;51.434;-2.004;2022-08-14T09:11:47;6.38;;;1.60;;
63026;SDS011;59113;51.434;-2.004;2022-08-14T09:14:13;5.63;;;1.85;;
63026;SDS011;59113;51.434;-2.004;2022-08-14T09:16:39;5.80;;;1.95;;
63026;SDS011;59113;51.434;-2.004;2022-08-14T09:19:05;9.40;;;1.55;;
63026;SDS011;59113;51.434;-2.004;2022-08-14T09:21:30;9.63;;;1.77;;
63026;SDS011;59113;51.434;-2.004;2022-08-14T09:23:58;3.97;;;1.80;;
63026;SDS011;59113;51.434;-2.004;2022-08-14T09:26:24;9.88;;;1.60;;
63026;SDS011;59113;51.434;-2.004;2022-08-14T09:28:50;5.05;;;1.70;;
63026;SDS011;59113;51.434;-2.004;2022-08-14T09:31:15;3.33;;;1.50;;
63026;SDS011;59113;51.434;-2.004;2022-08-14T09:33:46;3.15;;;1.90;;
63026;SDS011;59113;51.434;-2.004;2022-08-14T09:36:33;7.00;;;1.80;;
63026;SDS011;59113;51.434;-2.004;2022-08-14T09:47:49;5.57;;;1.60;;
63026;SDS011;59113;51.434;-2.004;2022-08-14T09:52:59;4.90;;;1.55;;
63026;SDS011;59113;51.434;-2.004;2022-08-14T09:55:29;6.40;;;1.80;;
63026;SDS011;59113;51.434;-2.004;2022-08-14T09:58:15;4.47;;;1.38;;
63026;SDS011;59113;51.434;-2.004;2022-08-14T10:00:47;5.35;;;1.42;;
63026;SDS011;59113;51.434;-2.004;2022-08-14T10:03:31;5.45;;;1.73;;
63026;SDS011;59113;51.434;-2.004;2022-08-14T10:06:12;4.28;;;1.50;;
63026;SDS011;59113;51.434;-2.004;2022-08-14T10:13:48;4.88;;;1.30;;
63026;SDS011;59113;51.434;-2.004;2022-08-14T10:16:25;5.38;;;1.58;;
63026;SDS011;59113;51.434;-2.004;2022-08-14T10:19:03;4.63;;;1.40;;
63026;SDS011;59113;51.434;-2.004;2022-08-14T10:21:40;7.35;;;1.52;;
63026;SDS011;59113;51.434;-2.004;2022-08-14T10:24:10;2.65;;;1.58;;
63026;SDS011;59113;51.434;-2.004;2022-08-14T10:27:13;3.88;;;1.70;;
63026;SDS011;59113;51.434;-2.004;2022-08-14T10:29:41;4.15;;;1.30;;
63026;SDS011;59113;51.434;-2.004;2022-08-14T10:32:08;6.63;;;1.63;;
63026;SDS011;59113;51.434;-2.004;2022-08-14T10:34:36;2.40;;;1.33;;
63026;SDS011;59113;51.434;-2.004;2022-08-14T10:37:07;3.38;;;1.30;;
63026;SDS011;59113;51.434;-2.004;2022-08-14T10:39:37;2.35;;;1.05;;
63026;SDS011;59113;51.434;-2.004;2022-08-14T10:42:12;2.80;;;1.50;;
63026;SDS011;59113;51.434;-2.004;2022-08-14T10:44:40;8.43;;;1.35;;
63026;SDS011;59113;51.434;-2.004;2022-08-14T10:47:10;4.55;;;1.10;;
63026;SDS011;59113;51.434;-2.004;2022-08-14T10:49:37;3.53;;;1.15;;
63026;SDS011;59113;51.434;-2.004;2022-08-14T10:52:21;3.15;;;1.05;;
63026;SDS011;59113;51.434;-2.004;2022-08-14T10:54:48;6.63;;;1.13;;
63026;SDS011;59113;51.434;-2.004;2022-08-14T10:59:46;5.60;;;1.10;;
63026;SDS011;59113;51.434;-2.004;2022-08-14T11:04:59;1.70;;;0.90;;
63026;SDS011;59113;51.434;-2.004;2022-08-14T11:07:28;4.85;;;1.13;;
63026;SDS011;59113;51.434;-2.004;2022-08-14T11:09:55;4.32;;;1.42;;
63026;SDS011;59113;51.434;-2.004;2022-08-14T11:12:25;6.00;;;0.88;;
63026;SDS011;59113;51.434;-2.004;2022-08-14T11:15:03;1.50;;;0.90;;
63026;SDS011;59113;51.434;-2.004;2022-08-14T11:17:32;3.60;;;1.08;;
63026;SDS011;59113;51.434;-2.004;2022-08-14T11:20:02;2.97;;;1.20;;
63026;SDS011;59113;51.434;-2.004;2022-08-14T11:22:31;8.27;;;1.13;;
63026;SDS011;59113;51.434;-2.004;2022-08-14T11:25:01;6.57;;;1.02;;
63026;SDS011;59113;51.434;-2.004;2022-08-14T11:27:30;6.00;;;0.88;;
63026;SDS011;59113;51.434;-2.004;2022-08-14T11:30:01;6.40;;;0.88;;
63026;SDS011;59113;51.434;-2.004;2022-08-14T11:32:30;5.10;;;0.98;;
63026;SDS011;59113;51.434;-2.004;2022-08-14T11:34:57;4.47;;;0.77;;
63026;SDS011;59113;51.434;-2.004;2022-08-14T11:37:24;6.05;;;0.93;;
63026;SDS011;59113;51.434;-2.004;2022-08-14T11:39:49;3.70;;;0.93;;
63026;SDS011;59113;51.434;-2.004;2022-08-14T11:42:22;3.85;;;1.00;;
63026;SDS011;59113;51.434;-2.004;2022-08-14T11:44:50;3.13;;;0.77;;
63026;SDS011;59113;51.434;-2.004;2022-08-14T11:50:27;4.05;;;0.95;;
63026;SDS011;59113;51.434;-2.004;2022-08-14T11:52:56;3.20;;;0.70;;
63026;SDS011;59113;51.434;-2.004;2022-08-14T11:55:24;4.35;;;0.70;;
63026;SDS011;59113;51.434;-2.004;2022-08-14T11:58:00;11.35;;;1.17;;
63026;SDS011;59113;51.434;-2.004;2022-08-14T12:02:58;3.53;;;1.10;;
63026;SDS011;59113;51.434;-2.004;2022-08-14T12:05:35;2.92;;;0.65;;
63026;SDS011;59113;51.434;-2.004;2022-08-14T12:08:08;9.32;;;1.10;;
63026;SDS011;59113;51.434;-2.004;2022-08-14T12:10:39;4.18;;;0.75;;
63026;SDS011;59113;51.434;-2.004;2022-08-14T12:13:13;3.25;;;1.00;;
63026;SDS011;59113;51.434;-2.004;2022-08-14T12:15:41;4.15;;;0.95;;
63026;SDS011;59113;51.434;-2.004;2022-08-14T12:18:07;5.32;;;1.00;;
63026;SDS011;59113;51.434;-2.004;2022-08-14T12:20:36;2.10;;;0.90;;
63026;SDS011;59113;51.434;-2.004;2022-08-14T12:23:05;6.25;;;1.02;;
63026;SDS011;59113;51.434;-2.004;2022-08-14T12:25:32;2.63;;;0.80;;
63026;SDS011;59113;51.434;-2.004;2022-08-14T12:28:01;1.55;;;0.70;;
63026;SDS011;59113;51.434;-2.004;2022-08-14T12:30:35;3.17;;;0.90;;
63026;SDS011;59113;51.434;-2.004;2022-08-14T12:33:05;2.05;;;1.13;;
63026;SDS011;59113;51.434;-2.004;2022-08-14T12:35:45;2.75;;;0.63;;
63026;SDS011;59113;51.434;-2.004;2022-08-14T12:38:11;9.48;;;1.23;;
63026;SDS011;59113;51.434;-2.004;2022-08-14T12:40:51;1.75;;;0.57;;
63026;SDS011;59113;51.434;-2.004;2022-08-14T12:43:18;2.35;;;0.50;;
63026;SDS011;59113;51.434;-2.004;2022-08-14T12:45:51;0.75;;;0.50;;
63026;SDS011;59113;51.434;-2.004;2022-08-14T12:48:21;3.95;;;0.98;;
63026;SDS011;59113;51.434;-2.004;2022-08-14T12:50:48;2.08;;;0.70;;
63026;SDS011;59113;51.434;-2.004;2022-08-14T12:53:17;2.38;;;0.80;;
63026;SDS011;59113;51.434;-2.004;2022-08-14T12:55:44;1.48;;;0.70;;
63026;SDS011;59113;51.434;-2.004;2022-08-14T12:58:21;1.03;;;0.67;;
63026;SDS011;59113;51.434;-2.004;2022-08-14T13:00:55;1.33;;;0.60;;
63026;SDS011;59113;51.434;-2.004;2022-08-14T13:03:27;2.42;;;0.75;;
63026;SDS011;59113;51.434;-2.004;2022-08-14T13:05:53;1.92;;;0.73;;
63026;SDS011;59113;51.434;-2.004;2022-08-14T13:11:18;3.60;;;0.77;;
63026;SDS011;59113;51.434;-2.004;2022-08-14T13:17:00;1.30;;;0.70;;
63026;SDS011;59113;51.434;-2.004;2022-08-14T13:19:28;1.95;;;0.60;;
63026;SDS011;59113;51.434;-2.004;2022-08-14T13:21:55;6.07;;;1.10;;
63026;SDS011;59113;51.434;-2.004;2022-08-14T13:24:23;8.50;;;0.93;;
63026;SDS011;59113;51.434;-2.004;2022-08-14T13:26:50;2.97;;;0.70;;
63026;SDS011;59113;51.434;-2.004;2022-08-14T13:29:20;1.65;;;1.17;;
63026;SDS011;59113;51.434;-2.004;2022-08-14T13:31:48;3.08;;;0.80;;
63026;SDS011;59113;51.434;-2.004;2022-08-14T13:34:22;2.22;;;0.60;;
63026;SDS011;59113;51.434;-2.004;2022-08-14T13:36:50;2.63;;;1.08;;
63026;SDS011;59113;51.434;-2.004;2022-08-14T13:39:20;2.00;;;0.57;;
63026;SDS011;59113;51.434;-2.004;2022-08-14T13:41:50;3.15;;;0.88;;
63026;SDS011;59113;51.434;-2.004;2022-08-14T13:44:19;3.38;;;0.93;;
63026;SDS011;59113;51.434;-2.004;2022-08-14T13:46:45;1.05;;;0.80;;
63026;SDS011;59113;51.434;-2.004;2022-08-14T13:49:13;1.33;;;0.90;;
63026;SDS011;59113;51.434;-2.004;2022-08-14T13:51:40;5.00;;;1.10;;
63026;SDS011;59113;51.434;-2.004;2022-08-14T13:54:08;1.55;;;1.15;;
63026;SDS011;59113;51.434;-2.004;2022-08-14T13:56:36;1.85;;;0.75;;
63026;SDS011;59113;51.434;-2.004;2022-08-14T13:59:05;9.05;;;1.35;;
63026;SDS011;59113;51.434;-2.004;2022-08-14T14:01:31;2.58;;;0.90;;
63026;SDS011;59113;51.434;-2.004;2022-08-14T14:04:04;5.93;;;0.90;;
63026;SDS011;59113;51.434;-2.004;2022-08-14T14:06:31;8.43;;;0.88;;
63026;SDS011;59113;51.434;-2.004;2022-08-14T14:08:58;8.63;;;0.90;;
63026;SDS011;59113;51.434;-2.004;2022-08-14T14:11:27;4.70;;;0.85;;
63026;SDS011;59113;51.434;-2.004;2022-08-14T14:13:54;4.72;;;0.80;;
63026;SDS011;59113;51.434;-2.004;2022-08-14T14:16:21;3.53;;;0.70;;
63026;SDS011;59113;51.434;-2.004;2022-08-14T14:18:48;4.47;;;0.80;;
63026;SDS011;59113;51.434;-2.004;2022-08-14T14:21:19;1.77;;;0.88;;
63026;SDS011;59113;51.434;-2.004;2022-08-14T14:23:46;4.47;;;1.15;;
63026;SDS011;59113;51.434;-2.004;2022-08-14T14:26:17;1.35;;;0.80;;
63026;SDS011;59113;51.434;-2.004;2022-08-14T14:28:48;5.03;;;0.80;;
63026;SDS011;59113;51.434;-2.004;2022-08-14T14:31:20;2.97;;;0.80;;
63026;SDS011;59113;51.434;-2.004;2022-08-14T14:33:49;5.63;;;1.10;;
63026;SDS011;59113;51.434;-2.004;2022-08-14T14:36:22;5.38;;;1.02;;
63026;SDS011;59113;51.434;-2.004;2022-08-14T14:38:52;1.67;;;0.63;;
63026;SDS011;59113;51.434;-2.004;2022-08-14T14:41:23;3.50;;;0.80;;
63026;SDS011;59113;51.434;-2.004;2022-08-14T14:43:50;1.35;;;0.70;;
63026;SDS011;59113;51.434;-2.004;2022-08-14T14:46:18;6.57;;;1.33;;
63026;SDS011;59113;51.434;-2.004;2022-08-14T14:51:11;5.05;;;0.80;;
63026;SDS011;59113;51.434;-2.004;2022-08-14T14:53:39;2.90;;;0.93;;
63026;SDS011;59113;51.434;-2.004;2022-08-14T14:58:53;1.92;;;0.90;;
63026;SDS011;59113;51.434;-2.004;2022-08-14T15:01:19;8.00;;;1.10;;
63026;SDS011;59113;51.434;-2.004;2022-08-14T15:03:47;2.00;;;1.00;;
63026;SDS011;59113;51.434;-2.004;2022-08-14T15:06:18;2.70;;;0.82;;
63026;SDS011;59113;51.434;-2.004;2022-08-14T15:08:47;3.95;;;0.85;;
63026;SDS011;59113;51.434;-2.004;2022-08-14T15:11:13;3.22;;;1.08;;
63026;SDS011;59113;51.434;-2.004;2022-08-14T15:13:38;3.60;;;0.80;;
63026;SDS011;59113;51.434;-2.004;2022-08-14T15:16:04;3.45;;;0.90;;
63026;SDS011;59113;51.434;-2.004;2022-08-14T15:18:31;1.50;;;0.93;;
63026;SDS011;59113;51.434;-2.004;2022-08-14T15:20:57;7.82;;;1.00;;
63026;SDS011;59113;51.434;-2.004;2022-08-14T15:23:25;2.40;;;0.90;;
63026;SDS011;59113;51.434;-2.004;2022-08-14T15:25:51;4.05;;;0.98;;
63026;SDS011;59113;51.434;-2.004;2022-08-14T15:28:17;1.00;;;0.68;;
63026;SDS011;59113;51.434;-2.004;2022-08-14T15:30:43;3.03;;;1.00;;
63026;SDS011;59113;51.434;-2.004;2022-08-14T15:33:10;3.25;;;1.00;;
63026;SDS011;59113;51.434;-2.004;2022-08-14T15:35:36;2.22;;;0.70;;
63026;SDS011;59113;51.434;-2.004;2022-08-14T15:40:49;1.65;;;0.68;;
63026;SDS011;59113;51.434;-2.004;2022-08-14T15:43:15;1.52;;;0.80;;
63026;SDS011;59113;51.434;-2.004;2022-08-14T15:45:40;1.10;;;0.70;;
63026;SDS011;59113;51.434;-2.004;2022-08-14T15:48:06;1.98;;;0.85;;
63026;SDS011;59113;51.434;-2.004;2022-08-14T15:50:32;2.25;;;0.80;;
63026;SDS011;59113;51.434;-2.004;2022-08-14T15:52:58;2.60;;;0.77;;
63026;SDS011;59113;51.434;-2.004;2022-08-14T15:55:23;2.50;;;0.98;;
63026;SDS011;59113;51.434;-2.004;2022-08-14T16:00:34;6.60;;;1.98;;
63026;SDS011;59113;51.434;-2.004;2022-08-14T16:03:19;2.53;;;1.58;;
63026;SDS011;59113;51.434;-2.004;2022-08-14T16:05:45;1.25;;;0.80;;
63026;SDS011;59113;51.434;-2.004;2022-08-14T16:08:11;5.28;;;0.98;;
63026;SDS011;59113;51.434;-2.004;2022-08-14T16:10:38;6.35;;;1.20;;
63026;SDS011;59113;51.434;-2.004;2022-08-14T16:13:05;1.60;;;1.10;;
63026;SDS011;59113;51.434;-2.004;2022-08-14T16:15:30;3.58;;;1.35;;
63026;SDS011;59113;51.434;-2.004;2022-08-14T16:17:56;2.30;;;0.90;;
63026;SDS011;59113;51.434;-2.004;2022-08-14T16:20:23;1.65;;;1.00;;
63026;SDS011;59113;51.434;-2.004;2022-08-14T16:25:19;3.53;;;0.77;;
63026;SDS011;59113;51.434;-2.004;2022-08-14T16:30:30;2.33;;;1.10;;
63026;SDS011;59113;51.434;-2.004;2022-08-14T16:32:56;5.57;;;1.23;;
63026;SDS011;59113;51.434;-2.004;2022-08-14T16:37:53;3.75;;;0.90;;
63026;SDS011;59113;51.434;-2.004;2022-08-14T16:40:19;2.90;;;1.10;;
63026;SDS011;59113;51.434;-2.004;2022-08-14T16:42:46;1.73;;;1.08;;
63026;SDS011;59113;51.434;-2.004;2022-08-14T16:45:14;1.80;;;1.17;;
63026;SDS011;59113;51.434;-2.004;2022-08-14T16:47:43;6.07;;;1.00;;
63026;SDS011;59113;51.434;-2.004;2022-08-14T16:50:09;2.70;;;0.95;;
63026;SDS011;59113;51.434;-2.004;2022-08-14T16:52:36;1.20;;;0.77;;
63026;SDS011;59113;51.434;-2.004;2022-08-14T16:55:06;2.25;;;0.80;;
63026;SDS011;59113;51.434;-2.004;2022-08-14T16:57:34;1.63;;;0.80;;
63026;SDS011;59113;51.434;-2.004;2022-08-14T17:00:31;6.85;;;1.20;;
63026;SDS011;59113;51.434;-2.004;2022-08-14T17:03:03;3.30;;;1.13;;
63026;SDS011;59113;51.434;-2.004;2022-08-14T17:05:34;0.98;;;0.88;;
63026;SDS011;59113;51.434;-2.004;2022-08-14T17:10:56;2.55;;;1.05;;
63026;SDS011;59113;51.434;-2.004;2022-08-14T17:13:21;5.05;;;1.00;;
63026;SDS011;59113;51.434;-2.004;2022-08-14T17:18:56;2.65;;;1.00;;
63026;SDS011;59113;51.434;-2.004;2022-08-14T17:23:58;2.75;;;1.20;;
63026;SDS011;59113;51.434;-2.004;2022-08-14T17:26:35;4.50;;;1.20;;
63026;SDS011;59113;51.434;-2.004;2022-08-14T17:31:42;2.65;;;1.00;;
63026;SDS011;59113;51.434;-2.004;2022-08-14T17:34:10;1.80;;;0.85;;
63026;SDS011;59113;51.434;-2.004;2022-08-14T17:36:38;4.43;;;1.35;;
63026;SDS011;59113;51.434;-2.004;2022-08-14T17:39:09;2.85;;;0.90;;
63026;SDS011;59113;51.434;-2.004;2022-08-14T17:44:23;2.97;;;1.10;;
63026;SDS011;59113;51.434;-2.004;2022-08-14T17:47:09;3.53;;;1.17;;
63026;SDS011;59113;51.434;-2.004;2022-08-14T17:49:36;1.27;;;0.93;;
63026;SDS011;59113;51.434;-2.004;2022-08-14T17:52:10;1.67;;;0.77;;
63026;SDS011;59113;51.434;-2.004;2022-08-14T17:57:17;2.45;;;0.98;;
63026;SDS011;59113;51.434;-2.004;2022-08-14T17:59:46;4.07;;;1.08;;
63026;SDS011;59113;51.434;-2.004;2022-08-14T18:02:13;3.17;;;1.17;;